Time;durP1;ratioP1;P1;durP2;ratioP2;P2;SDS_P1;SDS_P2;PMS_P1;PMS_P2;Temp;Humidity;BMP_temperature;BMP_pressure;BME280_temperature;BME280_humidity;BME280_pressure;Samples;Min_cycle;Max_cycle;Signal;HPM_P1;HPM_P2
2022/12/01 00:01:08;;;;;;;156.02;75.93;;;;;;;;;;5052453;28;20373;-75
2022/12/01 00:03:35;;;;;;;170.18;80.03;;;;;;;;;;5052471;28;20075;-75
2022/12/01 00:06:02;;;;;;;171.35;78.47;;;;;;;;;;5051776;28;20029;-75
2022/12/01 00:08:28;;;;;;;178.15;77.00;;;;;;;;;;5052285;28;20028;-74
2022/12/01 00:10:54;;;;;;;162.10;77.75;;;;;;;;;;5052102;28;20485;-75
2022/12/01 00:13:21;;;;;;;159.50;76.28;;;;;;;;;;5052291;28;20043;-75
2022/12/01 00:15:47;;;;;;;164.15;77.63;;;;;;;;;;5051827;28;20025;-75
2022/12/01 00:18:13;;;;;;;167.88;77.30;;;;;;;;;;5052366;28;20032;-74
2022/12/01 00:20:39;;;;;;;164.77;77.03;;;;;;;;;;5052369;28;20029;-74
2022/12/01 00:23:05;;;;;;;158.38;73.45;;;;;;;;;;5052373;28;20059;-74
2022/12/01 00:25:31;;;;;;;161.95;77.93;;;;;;;;;;5051808;28;20517;-75
2022/12/01 00:27:57;;;;;;;163.95;77.43;;;;;;;;;;5052389;28;20021;-74
2022/12/01 00:30:23;;;;;;;165.65;74.82;;;;;;;;;;5052370;28;20389;-74
2022/12/01 00:32:49;;;;;;;161.68;77.32;;;;;;;;;;5051885;28;20021;-75
2022/12/01 00:35:16;;;;;;;162.82;76.00;;;;;;;;;;5051737;28;20039;-75
2022/12/01 00:37:42;;;;;;;165.18;76.35;;;;;;;;;;5051474;28;20095;-76
2022/12/01 00:40:09;;;;;;;166.68;79.05;;;;;;;;;;5051683;28;20086;-74
2022/12/01 00:42:35;;;;;;;166.05;76.75;;;;;;;;;;5051985;28;20031;-74
2022/12/01 00:45:01;;;;;;;161.02;75.35;;;;;;;;;;5051735;28;20029;-75
2022/12/01 00:47:27;;;;;;;162.48;75.43;;;;;;;;;;5051087;28;20028;-74
2022/12/01 00:49:53;;;;;;;171.63;79.57;;;;;;;;;;5051527;28;20448;-74
2022/12/01 00:52:19;;;;;;;161.82;75.88;;;;;;;;;;5054555;28;20025;-74
2022/12/01 00:54:46;;;;;;;159.75;73.90;;;;;;;;;;5055597;28;20105;-75
2022/12/01 00:57:12;;;;;;;160.43;75.93;;;;;;;;;;5056690;28;20036;-74
2022/12/01 00:59:38;;;;;;;161.57;74.95;;;;;;;;;;5060929;28;20051;-74
2022/12/01 01:02:05;;;;;;;157.18;74.00;;;;;;;;;;5056691;28;20126;-74
2022/12/01 01:04:32;;;;;;;153.88;73.03;;;;;;;;;;5056590;28;20029;-75
2022/12/01 01:06:58;;;;;;;173.57;76.90;;;;;;;;;;5057052;28;20021;-74
2022/12/01 01:09:24;;;;;;;169.48;77.60;;;;;;;;;;5062494;28;20063;-75
2022/12/01 01:11:50;;;;;;;163.23;75.50;;;;;;;;;;5059543;28;20032;-75
2022/12/01 01:14:16;;;;;;;159.77;74.80;;;;;;;;;;5061858;28;20029;-76
2022/12/01 01:16:42;;;;;;;162.10;75.65;;;;;;;;;;5058777;28;20060;-75
2022/12/01 01:19:08;;;;;;;160.05;77.30;;;;;;;;;;5063357;28;20025;-74
2022/12/01 01:21:34;;;;;;;173.00;77.32;;;;;;;;;;5076031;28;20185;-74
2022/12/01 01:24:00;;;;;;;170.80;77.63;;;;;;;;;;5077664;28;20032;-75
2022/12/01 01:26:27;;;;;;;161.90;75.78;;;;;;;;;;5078762;28;19997;-74
2022/12/01 01:28:55;;;;;;;167.23;78.57;;;;;;;;;;5078430;28;20085;-74
2022/12/01 01:31:23;;;;;;;161.02;73.40;;;;;;;;;;5077366;28;20016;-74
2022/12/01 01:33:49;;;;;;;165.30;76.95;;;;;;;;;;5078429;28;20043;-72
2022/12/01 01:36:16;;;;;;;163.98;76.35;;;;;;;;;;5071403;28;20033;-75
2022/12/01 01:38:42;;;;;;;164.50;76.55;;;;;;;;;;5078409;28;20068;-74
2022/12/01 01:41:08;;;;;;;157.82;74.53;;;;;;;;;;5080168;28;20025;-73
2022/12/01 01:43:37;;;;;;;163.82;76.57;;;;;;;;;;5080122;28;20036;-74
2022/12/01 01:46:04;;;;;;;156.55;75.90;;;;;;;;;;5078299;28;20044;-73
2022/12/01 01:48:30;;;;;;;166.77;77.80;;;;;;;;;;5079536;28;20017;-73
2022/12/01 01:50:56;;;;;;;167.32;76.00;;;;;;;;;;5079315;28;20081;-73
2022/12/01 01:53:22;;;;;;;170.13;77.57;;;;;;;;;;5078107;28;20017;-74
2022/12/01 01:55:48;;;;;;;162.77;76.15;;;;;;;;;;5078169;28;20048;-73
2022/12/01 01:58:14;;;;;;;163.57;75.20;;;;;;;;;;5065114;28;20051;-73
2022/12/01 02:00:42;;;;;;;166.98;77.35;;;;;;;;;;5057990;28;20037;-74
2022/12/01 02:03:09;;;;;;;162.98;76.45;;;;;;;;;;5054945;28;20025;-74
2022/12/01 02:05:37;;;;;;;161.23;74.70;;;;;;;;;;5055089;28;20066;-74
2022/12/01 02:08:03;;;;;;;162.63;75.15;;;;;;;;;;5056697;28;20021;-74
2022/12/01 02:10:49;;;;;;;162.23;76.82;;;;;;;;;;5064090;28;20028;-74
2022/12/01 02:13:44;;;;;;;162.07;77.35;;;;;;;;;;5067619;28;20025;-74
2022/12/01 02:16:27;;;;;;;165.50;74.60;;;;;;;;;;5045052;28;20085;-74
2022/12/01 02:19:01;;;;;;;173.35;77.13;;;;;;;;;;5064286;28;20025;-74
2022/12/01 02:21:33;;;;;;;171.40;76.72;;;;;;;;;;5061486;28;20424;-74
2022/12/01 02:24:08;;;;;;;166.68;75.75;;;;;;;;;;5054194;28;20052;-75
2022/12/01 02:26:38;;;;;;;165.68;75.95;;;;;;;;;;5053618;28;20028;-74
2022/12/01 02:29:24;;;;;;;166.25;75.10;;;;;;;;;;5054310;28;20023;-74
2022/12/01 02:31:50;;;;;;;164.60;75.10;;;;;;;;;;5053934;28;20041;-74
2022/12/01 02:34:22;;;;;;;162.93;74.55;;;;;;;;;;5054247;28;20035;-74
2022/12/01 02:36:58;;;;;;;165.48;75.65;;;;;;;;;;5053701;28;20029;-73
2022/12/01 02:39:34;;;;;;;162.48;76.40;;;;;;;;;;5054173;28;20048;-73
2022/12/01 02:45:11;;;;;;;164.10;75.13;;;;;;;;;;5053067;28;20559;-74
2022/12/01 02:47:38;;;;;;;164.68;75.00;;;;;;;;;;5055061;28;20025;-75
2022/12/01 02:50:04;;;;;;;171.93;79.57;;;;;;;;;;5056844;28;20020;-74
2022/12/01 02:52:30;;;;;;;171.98;78.53;;;;;;;;;;5055865;28;20088;-74
2022/12/01 02:54:56;;;;;;;167.82;76.95;;;;;;;;;;5055486;28;20037;-74
2022/12/01 02:57:23;;;;;;;167.15;74.97;;;;;;;;;;5054309;28;20029;-74
2022/12/01 02:59:51;;;;;;;166.13;77.28;;;;;;;;;;5054145;28;20033;-74
2022/12/01 03:02:23;;;;;;;168.93;76.30;;;;;;;;;;5052343;28;20409;-74
2022/12/01 03:04:56;;;;;;;179.60;78.65;;;;;;;;;;5053850;28;20024;-74
2022/12/01 03:07:44;;;;;;;170.18;77.32;;;;;;;;;;5052269;28;20394;-73
2022/12/01 03:10:25;;;;;;;179.77;78.18;;;;;;;;;;5054186;28;20021;-74
2022/12/01 03:13:09;;;;;;;180.30;78.93;;;;;;;;;;5068812;28;20017;-74
2022/12/01 03:15:35;;;;;;;169.82;76.13;;;;;;;;;;5053683;28;20536;-74
2022/12/01 03:18:06;;;;;;;174.18;77.93;;;;;;;;;;5055997;28;20036;-73
2022/12/01 03:20:38;;;;;;;179.70;77.45;;;;;;;;;;5054790;28;20510;-74
2022/12/01 03:23:08;;;;;;;185.75;80.57;;;;;;;;;;5054684;28;20020;-73
2022/12/01 03:25:34;;;;;;;191.10;82.10;;;;;;;;;;5052631;28;20017;-73
2022/12/01 03:28:01;;;;;;;187.82;81.55;;;;;;;;;;5053400;28;20070;-74
2022/12/01 03:30:28;;;;;;;184.02;80.18;;;;;;;;;;5053558;28;20013;-74
2022/12/01 03:32:57;;;;;;;181.45;81.30;;;;;;;;;;5053500;28;20031;-73
2022/12/01 03:35:28;;;;;;;182.23;79.05;;;;;;;;;;5052644;28;20032;-72
2022/12/01 03:37:58;;;;;;;191.23;81.43;;;;;;;;;;5053105;28;20143;-76
2022/12/01 03:40:26;;;;;;;188.52;81.10;;;;;;;;;;5053054;28;20040;-74
2022/12/01 03:42:55;;;;;;;186.52;83.13;;;;;;;;;;5053011;28;20090;-74
2022/12/01 03:45:27;;;;;;;188.75;82.47;;;;;;;;;;5052475;28;20021;-74
2022/12/01 03:47:53;;;;;;;200.30;84.40;;;;;;;;;;5052977;28;20505;-74
2022/12/01 03:50:19;;;;;;;193.13;81.97;;;;;;;;;;5052829;28;20021;-73
2022/12/01 03:52:56;;;;;;;196.13;84.45;;;;;;;;;;5054300;28;20116;-76
2022/12/01 03:55:22;;;;;;;201.45;83.47;;;;;;;;;;5066533;22;20132;-74
2022/12/01 03:57:51;;;;;;;200.32;84.40;;;;;;;;;;5037004;28;20327;-75
2022/12/01 04:00:18;;;;;;;204.45;82.85;;;;;;;;;;5048297;28;20059;-73
2022/12/01 04:02:44;;;;;;;200.80;85.90;;;;;;;;;;5050996;28;20056;-73
2022/12/01 04:05:11;;;;;;;197.82;84.32;;;;;;;;;;5050133;28;20041;-74
2022/12/01 04:07:37;;;;;;;194.98;82.95;;;;;;;;;;5041839;28;20040;-74
2022/12/01 04:10:04;;;;;;;199.43;82.97;;;;;;;;;;5033625;28;20022;-76
2022/12/01 04:12:31;;;;;;;202.43;83.50;;;;;;;;;;5033208;28;20521;-75
2022/12/01 04:14:58;;;;;;;213.68;85.75;;;;;;;;;;5033736;28;20021;-73
2022/12/01 04:17:24;;;;;;;204.50;84.60;;;;;;;;;;5035951;28;20036;-75
2022/12/01 04:19:50;;;;;;;204.63;85.30;;;;;;;;;;5040851;28;20033;-73
2022/12/01 04:22:16;;;;;;;206.30;84.88;;;;;;;;;;5040486;28;20030;-73
2022/12/01 04:24:42;;;;;;;203.73;82.43;;;;;;;;;;5038295;28;20033;-74
2022/12/01 04:27:08;;;;;;;202.05;84.70;;;;;;;;;;5035059;28;20422;-72
2022/12/01 04:29:34;;;;;;;206.70;86.55;;;;;;;;;;5036649;28;20049;-72
2022/12/01 04:32:00;;;;;;;210.73;85.38;;;;;;;;;;5039464;28;20025;-74
2022/12/01 04:34:26;;;;;;;202.45;84.68;;;;;;;;;;5035761;28;20025;-73
2022/12/01 04:36:52;;;;;;;199.70;81.65;;;;;;;;;;5033757;28;20055;-75
2022/12/01 04:39:18;;;;;;;198.55;84.65;;;;;;;;;;5033691;28;20491;-73
2022/12/01 04:41:44;;;;;;;195.60;81.50;;;;;;;;;;5033350;28;20025;-74
2022/12/01 04:44:10;;;;;;;195.02;81.82;;;;;;;;;;5032820;28;20491;-73
2022/12/01 04:46:36;;;;;;;193.35;81.50;;;;;;;;;;5031222;28;20025;-73
2022/12/01 04:49:03;;;;;;;189.82;81.90;;;;;;;;;;5031284;28;20030;-74
2022/12/01 04:51:29;;;;;;;205.18;84.55;;;;;;;;;;5032089;28;20040;-74
2022/12/01 04:53:55;;;;;;;202.02;82.43;;;;;;;;;;5033176;28;20021;-73
2022/12/01 04:56:21;;;;;;;198.52;83.18;;;;;;;;;;5032771;28;20078;-73
2022/12/01 04:58:47;;;;;;;200.77;82.65;;;;;;;;;;5031543;28;20040;-73
2022/12/01 05:01:13;;;;;;;189.25;80.40;;;;;;;;;;5033035;28;20036;-73
2022/12/01 05:03:40;;;;;;;193.95;80.60;;;;;;;;;;5033038;28;20386;-73
2022/12/01 05:06:08;;;;;;;195.48;80.95;;;;;;;;;;5032464;28;20056;-74
2022/12/01 05:08:34;;;;;;;192.55;82.75;;;;;;;;;;5032742;28;20125;-74
2022/12/01 05:11:00;;;;;;;198.63;83.35;;;;;;;;;;5032877;28;20558;-74
2022/12/01 05:13:26;;;;;;;208.35;84.75;;;;;;;;;;5033671;28;20160;-74
2022/12/01 05:15:52;;;;;;;197.35;81.28;;;;;;;;;;5033508;28;20048;-74
2022/12/01 05:18:18;;;;;;;202.07;83.60;;;;;;;;;;5031919;28;20030;-75
2022/12/01 05:20:57;;;;;;;193.77;79.72;;;;;;;;;;5037944;28;20087;-73
2022/12/01 05:23:24;;;;;;;199.23;82.50;;;;;;;;;;5052850;28;20033;-72
2022/12/01 05:25:50;;;;;;;205.07;83.90;;;;;;;;;;5048463;28;20041;-73
2022/12/01 05:28:15;;;;;;;196.18;82.07;;;;;;;;;;5033288;28;20033;-74
2022/12/01 05:30:42;;;;;;;198.88;83.45;;;;;;;;;;5032877;28;20029;-75
2022/12/01 05:33:08;;;;;;;197.00;82.75;;;;;;;;;;5033591;28;20026;-74
2022/12/01 05:35:34;;;;;;;191.40;79.60;;;;;;;;;;5033617;28;20025;-74
2022/12/01 05:38:00;;;;;;;205.50;82.28;;;;;;;;;;5035630;28;20029;-74
2022/12/01 05:40:26;;;;;;;195.23;80.93;;;;;;;;;;5042928;28;20071;-73
2022/12/01 05:42:52;;;;;;;203.52;83.10;;;;;;;;;;5051345;28;20029;-75
2022/12/01 05:45:18;;;;;;;193.52;79.80;;;;;;;;;;5051865;28;20033;-75
2022/12/01 05:47:44;;;;;;;194.98;79.95;;;;;;;;;;5040979;28;20473;-75
2022/12/01 05:50:10;;;;;;;205.50;82.40;;;;;;;;;;5036593;28;20117;-75
2022/12/01 05:52:36;;;;;;;204.65;82.43;;;;;;;;;;5037362;28;20025;-74
2022/12/01 05:55:03;;;;;;;201.43;82.25;;;;;;;;;;5040805;28;20176;-73
2022/12/01 05:57:29;;;;;;;220.18;84.97;;;;;;;;;;5035522;28;20037;-76
2022/12/01 05:59:55;;;;;;;209.45;84.22;;;;;;;;;;5039431;28;20047;-73
2022/12/01 06:02:21;;;;;;;206.07;84.75;;;;;;;;;;5041873;28;20454;-75
2022/12/01 06:04:47;;;;;;;197.23;80.35;;;;;;;;;;5056264;28;20025;-74
2022/12/01 06:07:13;;;;;;;201.20;81.85;;;;;;;;;;5058202;28;20031;-75
2022/12/01 06:09:39;;;;;;;205.07;83.18;;;;;;;;;;5058081;28;20049;-74
2022/12/01 06:12:05;;;;;;;205.88;83.57;;;;;;;;;;5057351;28;20033;-74
2022/12/01 06:14:31;;;;;;;202.75;83.13;;;;;;;;;;5056564;28;20029;-74
2022/12/01 06:16:57;;;;;;;212.15;84.13;;;;;;;;;;5053858;28;20041;-75
2022/12/01 06:19:23;;;;;;;206.20;85.07;;;;;;;;;;5051817;28;20033;-74
2022/12/01 06:21:49;;;;;;;213.93;85.43;;;;;;;;;;5050562;28;20052;-74
2022/12/01 06:24:15;;;;;;;204.65;83.72;;;;;;;;;;5049277;28;20033;-75
2022/12/01 06:26:41;;;;;;;212.73;84.72;;;;;;;;;;5052124;28;20025;-75
2022/12/01 06:29:07;;;;;;;211.77;84.88;;;;;;;;;;5058043;28;20049;-73
2022/12/01 06:31:33;;;;;;;210.52;83.78;;;;;;;;;;5057993;28;20033;-74
2022/12/01 06:33:59;;;;;;;205.85;83.32;;;;;;;;;;5060541;28;20017;-73
2022/12/01 06:36:25;;;;;;;214.27;86.22;;;;;;;;;;5058497;28;20036;-74
2022/12/01 06:38:51;;;;;;;214.32;82.00;;;;;;;;;;5057601;28;20013;-74
2022/12/01 06:41:17;;;;;;;221.73;85.95;;;;;;;;;;5056569;28;20116;-73
2022/12/01 06:43:43;;;;;;;212.95;84.68;;;;;;;;;;5058271;28;20048;-74
2022/12/01 06:46:09;;;;;;;215.73;83.75;;;;;;;;;;5054531;28;20050;-73
2022/12/01 06:48:35;;;;;;;212.27;84.97;;;;;;;;;;5057518;28;20030;-73
2022/12/01 06:51:01;;;;;;;210.20;82.03;;;;;;;;;;5050044;28;20036;-75
2022/12/01 06:53:28;;;;;;;212.88;82.97;;;;;;;;;;5042318;28;20041;-74
2022/12/01 06:55:58;;;;;;;205.88;82.35;;;;;;;;;;5041172;28;20036;-72
2022/12/01 06:58:24;;;;;;;203.10;81.35;;;;;;;;;;5037015;28;20061;-73
2022/12/01 07:00:50;;;;;;;211.90;79.90;;;;;;;;;;5037197;28;20390;-74
2022/12/01 07:03:16;;;;;;;201.60;81.53;;;;;;;;;;5035229;28;20433;-75
2022/12/01 07:05:42;;;;;;;208.60;82.28;;;;;;;;;;5034356;28;20398;-74
2022/12/01 07:08:08;;;;;;;212.50;83.72;;;;;;;;;;5034965;28;20083;-74
2022/12/01 07:10:34;;;;;;;205.60;85.18;;;;;;;;;;5034949;28;20032;-73
2022/12/01 07:13:00;;;;;;;207.50;83.03;;;;;;;;;;5035204;28;20031;-73
2022/12/01 07:15:27;;;;;;;202.65;80.43;;;;;;;;;;5034361;28;20025;-73
2022/12/01 07:17:53;;;;;;;204.98;82.25;;;;;;;;;;5034991;28;20018;-73
2022/12/01 07:20:19;;;;;;;208.77;84.43;;;;;;;;;;5034812;28;20103;-76
2022/12/01 07:22:45;;;;;;;210.80;82.28;;;;;;;;;;5035712;28;20021;-75
2022/12/01 07:25:11;;;;;;;206.27;81.53;;;;;;;;;;5038003;28;20433;-76
2022/12/01 07:27:37;;;;;;;201.50;80.43;;;;;;;;;;5036834;28;20100;-75
2022/12/01 07:30:03;;;;;;;205.43;81.80;;;;;;;;;;5034463;28;20386;-75
2022/12/01 07:32:29;;;;;;;213.05;85.78;;;;;;;;;;5032582;28;20067;-75
2022/12/01 07:34:55;;;;;;;201.13;81.93;;;;;;;;;;5033695;28;20029;-73
2022/12/01 07:37:21;;;;;;;201.82;81.28;;;;;;;;;;5033728;28;20522;-74
2022/12/01 07:39:47;;;;;;;226.38;91.85;;;;;;;;;;5035246;28;20588;-75
2022/12/01 07:42:13;;;;;;;209.02;84.18;;;;;;;;;;5033509;28;20136;-74
2022/12/01 07:44:38;;;;;;;206.82;83.20;;;;;;;;;;5033401;28;20025;-73
2022/12/01 07:47:04;;;;;;;208.50;80.85;;;;;;;;;;5033357;28;20438;-77
2022/12/01 07:49:30;;;;;;;207.70;83.07;;;;;;;;;;5034964;28;20475;-72
2022/12/01 07:51:56;;;;;;;208.55;82.97;;;;;;;;;;5037265;28;20034;-77
2022/12/01 07:54:24;;;;;;;197.48;79.40;;;;;;;;;;5039356;28;20029;-77
2022/12/01 07:56:50;;;;;;;210.35;84.47;;;;;;;;;;5034737;28;20464;-76
2022/12/01 07:59:16;;;;;;;207.60;80.53;;;;;;;;;;5037822;28;20025;-77
2022/12/01 08:01:42;;;;;;;200.15;82.32;;;;;;;;;;5035193;28;20069;-77
2022/12/01 08:04:08;;;;;;;199.23;80.75;;;;;;;;;;5037680;28;20489;-78
2022/12/01 08:06:34;;;;;;;201.43;81.57;;;;;;;;;;5041543;28;20029;-80
2022/12/01 08:09:00;;;;;;;197.95;79.63;;;;;;;;;;5041027;28;20029;-78
2022/12/01 08:11:28;;;;;;;199.18;79.18;;;;;;;;;;5042502;28;20072;-76
2022/12/01 08:13:54;;;;;;;204.93;81.20;;;;;;;;;;5040279;28;20047;-78
2022/12/01 08:16:22;;;;;;;193.55;81.38;;;;;;;;;;5049316;28;20048;-80
2022/12/01 08:18:48;;;;;;;210.00;81.50;;;;;;;;;;5042282;28;20021;-76
2022/12/01 08:21:15;;;;;;;190.68;76.68;;;;;;;;;;5034126;28;20025;-77
2022/12/01 08:23:41;;;;;;;196.18;78.65;;;;;;;;;;5038662;28;20022;-77
2022/12/01 08:26:09;;;;;;;193.23;74.28;;;;;;;;;;5033679;28;20063;-77
2022/12/01 08:28:35;;;;;;;197.48;76.70;;;;;;;;;;5034626;28;20024;-79
2022/12/01 08:31:08;;;;;;;179.43;73.70;;;;;;;;;;5035486;28;20437;-79
2022/12/01 08:33:34;;;;;;;191.88;75.63;;;;;;;;;;5042033;28;20025;-76
2022/12/01 08:36:01;;;;;;;196.40;77.32;;;;;;;;;;5056769;28;20060;-73
2022/12/01 08:38:27;;;;;;;198.93;82.45;;;;;;;;;;5055893;28;20018;-77
2022/12/01 08:40:55;;;;;;;194.30;78.05;;;;;;;;;;5054116;28;20037;-76
2022/12/01 08:43:21;;;;;;;185.60;75.80;;;;;;;;;;5051846;28;20010;-76
2022/12/01 08:45:47;;;;;;;186.75;76.47;;;;;;;;;;5044814;28;20078;-76
2022/12/01 08:48:13;;;;;;;187.85;76.43;;;;;;;;;;5035420;28;20037;-76
2022/12/01 08:50:39;;;;;;;194.27;76.88;;;;;;;;;;5034693;28;20624;-77
2022/12/01 08:53:05;;;;;;;184.38;74.13;;;;;;;;;;5035231;28;20041;-76
2022/12/01 08:55:31;;;;;;;189.93;76.43;;;;;;;;;;5037576;28;20041;-78
2022/12/01 08:57:57;;;;;;;188.93;75.35;;;;;;;;;;5038427;28;20071;-76
2022/12/01 09:00:23;;;;;;;180.10;72.30;;;;;;;;;;5036781;28;20117;-76
2022/12/01 09:02:49;;;;;;;196.40;75.70;;;;;;;;;;5032798;28;20041;-77
2022/12/01 09:05:15;;;;;;;177.63;74.35;;;;;;;;;;5032961;28;20033;-75
2022/12/01 09:07:41;;;;;;;190.75;74.43;;;;;;;;;;5031285;28;20071;-75
2022/12/01 09:10:08;;;;;;;187.88;75.13;;;;;;;;;;5033952;28;20440;-76
2022/12/01 09:12:34;;;;;;;181.60;72.68;;;;;;;;;;5036473;28;20033;-74
2022/12/01 09:15:00;;;;;;;174.98;72.45;;;;;;;;;;5041430;28;20117;-75
2022/12/01 09:17:26;;;;;;;173.68;72.35;;;;;;;;;;5045226;28;20036;-77
2022/12/01 09:19:52;;;;;;;176.85;70.93;;;;;;;;;;5045804;28;20033;-75
2022/12/01 09:22:17;;;;;;;183.30;75.40;;;;;;;;;;5039041;28;20036;-76
2022/12/01 09:24:44;;;;;;;185.00;73.57;;;;;;;;;;5037138;28;20018;-77
2022/12/01 09:27:10;;;;;;;182.45;73.70;;;;;;;;;;5037738;28;20029;-77
2022/12/01 09:29:36;;;;;;;180.57;71.68;;;;;;;;;;5036568;28;20442;-76
2022/12/01 09:32:02;;;;;;;183.68;73.07;;;;;;;;;;5038643;28;20501;-77
2022/12/01 09:34:28;;;;;;;186.23;72.47;;;;;;;;;;5037833;28;20079;-79
2022/12/01 09:36:56;;;;;;;176.27;72.10;;;;;;;;;;5037577;28;20455;-75
2022/12/01 09:39:22;;;;;;;172.15;69.85;;;;;;;;;;5037136;28;20028;-76
2022/12/01 09:41:48;;;;;;;165.10;70.15;;;;;;;;;;5036464;28;20482;-75
2022/12/01 09:44:26;;;;;;;170.40;70.07;;;;;;;;;;5037117;28;20022;-73
2022/12/01 09:46:55;;;;;;;171.65;67.45;;;;;;;;;;5035262;28;20025;-75
2022/12/01 09:49:25;;;;;;;154.20;63.72;;;;;;;;;;5038350;28;20481;-71
2022/12/01 09:51:54;;;;;;;154.55;64.03;;;;;;;;;;5038192;28;20059;-72
2022/12/01 09:54:20;;;;;;;146.57;60.92;;;;;;;;;;5040065;28;20033;-72
2022/12/01 09:56:49;;;;;;;146.57;61.40;;;;;;;;;;5040063;28;20093;-75
2022/12/01 09:59:32;;;;;;;142.88;58.63;;;;;;;;;;5050866;28;20034;-74
2022/12/01 10:02:00;;;;;;;143.57;59.72;;;;;;;;;;5043600;28;20095;-74
2022/12/01 10:04:30;;;;;;;147.52;59.22;;;;;;;;;;5036578;28;20528;-75
2022/12/01 10:07:15;;;;;;;146.75;59.05;;;;;;;;;;5035860;28;20495;-72
2022/12/01 10:09:45;;;;;;;145.45;59.25;;;;;;;;;;5036211;28;20496;-72
2022/12/01 10:12:15;;;;;;;141.77;58.13;;;;;;;;;;5035887;28;20036;-75
2022/12/01 10:14:43;;;;;;;150.13;61.97;;;;;;;;;;5035597;28;20037;-74
2022/12/01 10:17:15;;;;;;;141.13;55.72;;;;;;;;;;5035325;28;20116;-76
2022/12/01 10:19:41;;;;;;;141.95;55.88;;;;;;;;;;5037057;28;20525;-77
2022/12/01 10:22:16;;;;;;;142.68;56.05;;;;;;;;;;5034174;28;20121;-76
2022/12/01 10:24:42;;;;;;;141.73;56.15;;;;;;;;;;5037850;28;20033;-71
2022/12/01 10:27:37;;;;;;;134.82;55.22;;;;;;;;;;5033946;28;20455;-75
2022/12/01 10:30:03;;;;;;;;;;;;;;;;;;5033024;28;20114;-74
2022/12/01 10:32:36;;;;;;;131.88;51.35;;;;;;;;;;5036795;28;19905;-76
2022/12/01 10:35:02;;;;;;;136.30;52.33;;;;;;;;;;5037720;28;20063;-75
2022/12/01 10:37:29;;;;;;;133.90;51.40;;;;;;;;;;5038124;28;20064;-76
2022/12/01 10:39:56;;;;;;;124.00;47.92;;;;;;;;;;5036306;28;20036;-76
2022/12/01 10:42:30;;;;;;;135.45;49.95;;;;;;;;;;5036619;28;20044;-75
2022/12/01 10:44:56;;;;;;;133.27;50.43;;;;;;;;;;5036309;28;20100;-75
2022/12/01 10:47:26;;;;;;;130.52;50.30;;;;;;;;;;5035665;28;20025;-73
2022/12/01 10:49:52;;;;;;;127.78;48.75;;;;;;;;;;5044941;28;20044;-72
2022/12/01 10:52:38;;;;;;;127.10;47.95;;;;;;;;;;5056359;28;20025;-73
2022/12/01 10:55:25;;;;;;;133.52;48.28;;;;;;;;;;5038337;28;20037;-75
2022/12/01 10:57:52;;;;;;;141.93;51.17;;;;;;;;;;5049847;28;20025;-72
2022/12/01 11:00:25;;;;;;;138.40;50.40;;;;;;;;;;5054693;28;20115;-74
2022/12/01 11:02:52;;;;;;;132.95;49.38;;;;;;;;;;5054821;28;20096;-72
2022/12/01 11:05:29;;;;;;;134.70;49.95;;;;;;;;;;5053623;28;20089;-71
2022/12/01 11:07:55;;;;;;;140.88;50.15;;;;;;;;;;5053512;28;20036;-74
2022/12/01 11:10:21;;;;;;;143.20;50.10;;;;;;;;;;5045776;28;20059;-74
2022/12/01 11:13:04;;;;;;;144.15;48.15;;;;;;;;;;5038557;28;20052;-75
2022/12/01 11:15:32;;;;;;;151.90;49.13;;;;;;;;;;5036194;28;20056;-76
2022/12/01 11:18:00;;;;;;;155.63;49.13;;;;;;;;;;5035456;28;20100;-75
2022/12/01 11:20:34;;;;;;;159.10;50.60;;;;;;;;;;5035065;28;20068;-76
2022/12/01 11:23:20;;;;;;;151.67;48.57;;;;;;;;;;5035929;28;20486;-75
2022/12/01 11:26:04;;;;;;;132.20;43.63;;;;;;;;;;5035985;28;20350;-77
2022/12/01 11:28:32;;;;;;;121.95;41.22;;;;;;;;;;5035270;28;20021;-77
2022/12/01 11:31:00;;;;;;;122.88;41.25;;;;;;;;;;5034867;28;20052;-77
2022/12/01 11:33:27;;;;;;;128.35;41.53;;;;;;;;;;5035832;28;20045;-75
2022/12/01 11:35:53;;;;;;;124.55;41.50;;;;;;;;;;5033762;28;20033;-77
2022/12/01 11:38:21;;;;;;;138.57;43.42;;;;;;;;;;5033943;28;20030;-75
2022/12/01 11:40:48;;;;;;;118.05;40.70;;;;;;;;;;5035188;28;20029;-77
2022/12/01 11:43:31;;;;;;;125.50;42.92;;;;;;;;;;5037283;28;20482;-74
2022/12/01 11:45:59;;;;;;;122.28;43.05;;;;;;;;;;5038877;28;20053;-76
2022/12/01 11:48:26;;;;;;;132.88;43.67;;;;;;;;;;5037621;28;20048;-77
2022/12/01 11:51:06;;;;;;;134.15;43.38;;;;;;;;;;5036788;28;20547;-76
2022/12/01 11:53:34;;;;;;;112.70;40.10;;;;;;;;;;5037160;28;20163;-75
2022/12/01 11:56:22;;;;;;;119.80;39.88;;;;;;;;;;5037249;28;20117;-76
2022/12/01 11:58:49;;;;;;;115.05;41.45;;;;;;;;;;5035515;28;20025;-76
2022/12/01 12:01:18;;;;;;;101.10;36.97;;;;;;;;;;5036086;28;20036;-77
2022/12/01 12:03:51;;;;;;;114.38;38.05;;;;;;;;;;5033566;28;20028;-75
2022/12/01 12:06:16;;;;;;;103.68;38.25;;;;;;;;;;5032991;28;20029;-76
2022/12/01 12:08:51;;;;;;;121.97;40.45;;;;;;;;;;5032908;28;20026;-74
2022/12/01 12:11:20;;;;;;;108.97;38.97;;;;;;;;;;5032823;28;20163;-74
2022/12/01 12:13:55;;;;;;;109.40;38.78;;;;;;;;;;5034692;28;20395;-76
2022/12/01 12:16:20;;;;;;;;;;;;;;;;;;5032660;28;20394;-75
2022/12/01 12:18:57;;;;;;;114.47;39.20;;;;;;;;;;5032410;28;19912;-76
2022/12/01 12:21:45;;;;;;;115.38;39.58;;;;;;;;;;5034689;28;20072;-75
2022/12/01 12:24:30;;;;;;;112.05;38.42;;;;;;;;;;5032987;28;20426;-76
2022/12/01 12:27:04;;;;;;;99.45;36.28;;;;;;;;;;5030028;28;20032;-77
2022/12/01 12:29:49;;;;;;;97.90;36.10;;;;;;;;;;5032394;28;20541;-75
2022/12/01 12:32:15;;;;;;;124.45;45.33;;;;;;;;;;5035469;28;20549;-75
2022/12/01 12:34:49;;;;;;;150.55;57.20;;;;;;;;;;5033343;28;20029;-74
2022/12/01 12:37:33;;;;;;;116.22;41.22;;;;;;;;;;5031615;28;20026;-74
2022/12/01 12:40:05;;;;;;;88.15;34.50;;;;;;;;;;5028391;28;20033;-74
2022/12/01 12:42:37;;;;;;;95.30;35.10;;;;;;;;;;5035742;28;20025;-74
2022/12/01 12:45:10;;;;;;;80.53;31.35;;;;;;;;;;5034241;28;20044;-75
2022/12/01 12:47:39;;;;;;;94.70;36.00;;;;;;;;;;5033512;28;20082;-75
2022/12/01 12:50:11;;;;;;;80.70;31.52;;;;;;;;;;5036208;28;20025;-76
2022/12/01 12:52:40;;;;;;;80.25;30.30;;;;;;;;;;5030201;28;20109;-74
2022/12/01 12:55:20;;;;;;;87.78;32.83;;;;;;;;;;5035923;28;20534;-73
2022/12/01 12:57:53;;;;;;;93.63;32.90;;;;;;;;;;5039938;28;20027;-76
2022/12/01 13:00:28;;;;;;;85.05;32.20;;;;;;;;;;5043637;28;20025;-74
2022/12/01 13:03:04;;;;;;;86.32;33.05;;;;;;;;;;5051392;28;20081;-73
2022/12/01 13:05:44;;;;;;;93.78;34.72;;;;;;;;;;5048776;28;20010;-74
2022/12/01 13:08:10;;;;;;;102.45;36.30;;;;;;;;;;5048976;28;20018;-75
2022/12/01 13:10:40;;;;;;;101.75;35.75;;;;;;;;;;5044499;28;20362;-75
2022/12/01 13:13:26;;;;;;;103.93;37.63;;;;;;;;;;5040010;28;20013;-76
2022/12/01 13:15:54;;;;;;;103.43;34.47;;;;;;;;;;5029227;28;20048;-74
2022/12/01 13:18:49;;;;;;;101.38;37.05;;;;;;;;;;5036325;28;20029;-76
2022/12/01 13:21:15;;;;;;;;;;;;;;;;;;4997402;28;20033;-74
2022/12/01 13:23:42;;;;;;;99.53;33.35;;;;;;;;;;5054087;28;19928;-73
2022/12/01 13:26:09;;;;;;;102.22;34.53;;;;;;;;;;5055024;28;20056;-72
2022/12/01 13:28:40;;;;;;;118.55;39.80;;;;;;;;;;5053953;28;20061;-73
2022/12/01 13:31:08;;;;;;;106.60;36.28;;;;;;;;;;5052997;28;20032;-75
2022/12/01 13:33:35;;;;;;;116.05;37.60;;;;;;;;;;5036716;28;20081;-76
2022/12/01 13:36:06;;;;;;;117.63;37.10;;;;;;;;;;5037285;28;20036;-76
2022/12/01 13:38:33;;;;;;;108.65;36.63;;;;;;;;;;5034932;28;20040;-76
2022/12/01 13:41:12;;;;;;;112.10;36.85;;;;;;;;;;5034109;28;20133;-75
2022/12/01 13:43:48;;;;;;;129.63;43.17;;;;;;;;;;5032662;28;20027;-76
2022/12/01 13:46:27;;;;;;;124.85;40.17;;;;;;;;;;5033392;28;20024;-76
2022/12/01 13:48:55;;;;;;;109.78;35.45;;;;;;;;;;5033888;28;20022;-77
2022/12/01 13:51:22;;;;;;;117.30;40.42;;;;;;;;;;5034647;28;20037;-76
2022/12/01 13:54:11;;;;;;;108.07;33.60;;;;;;;;;;5038908;28;20037;-74
2022/12/01 13:56:37;;;;;;;105.40;34.78;;;;;;;;;;5038715;28;20510;-76
2022/12/01 13:59:03;;;;;;;104.97;33.22;;;;;;;;;;5040692;28;20021;-76
2022/12/01 14:01:30;;;;;;;103.85;33.55;;;;;;;;;;5042653;28;20036;-75
2022/12/01 14:03:59;;;;;;;112.90;36.13;;;;;;;;;;5039969;28;20091;-76
2022/12/01 14:06:48;;;;;;;100.47;32.95;;;;;;;;;;5036611;28;20536;-76
2022/12/01 14:09:32;;;;;;;109.85;35.05;;;;;;;;;;5037845;28;20569;-73
2022/12/01 14:12:03;;;;;;;108.43;35.40;;;;;;;;;;5035895;28;20121;-76
2022/12/01 14:14:36;;;;;;;112.95;35.83;;;;;;;;;;5036820;28;20034;-76
2022/12/01 14:17:02;;;;;;;77.93;25.30;;;;;;;;;;5037784;28;20057;-74
2022/12/01 14:19:37;;;;;;;98.85;34.13;;;;;;;;;;5041462;28;20021;-76